sensor_id;sensor_type;location;lat;lon;timestamp;pressure;altitude;pressure_sealevel;temperature;humidity
9738;BME280;4908;47.446;13.900;2024-03-02T00:01:36;91842.88;;;5.20;100.00
9738;BME280;4908;47.446;13.900;2024-03-02T00:04:05;91847.75;;;5.14;100.00
9738;BME280;4908;47.446;13.900;2024-03-02T00:06:34;91845.47;;;5.13;100.00
9738;BME280;4908;47.446;13.900;2024-03-02T00:09:01;91845.41;;;5.06;100.00
9738;BME280;4908;47.446;13.900;2024-03-02T00:11:29;91847.66;;;5.00;100.00
9738;BME280;4908;47.446;13.900;2024-03-02T00:13:56;91851.66;;;4.80;100.00
9738;BME280;4908;47.446;13.900;2024-03-02T00:16:23;91849.97;;;4.54;100.00
9738;BME280;4908;47.446;13.900;2024-03-02T00:18:51;91849.09;;;4.43;100.00
9738;BME280;4908;47.446;13.900;2024-03-02T00:21:19;91847.34;;;4.58;100.00
9738;BME280;4908;47.446;13.900;2024-03-02T00:23:48;91851.81;;;4.50;100.00
9738;BME280;4908;47.446;13.900;2024-03-02T00:26:17;91857.88;;;4.51;100.00
9738;BME280;4908;47.446;13.900;2024-03-02T00:28:44;91847.31;;;4.54;100.00
9738;BME280;4908;47.446;13.900;2024-03-02T00:31:12;91851.88;;;4.57;100.00
9738;BME280;4908;47.446;13.900;2024-03-02T00:33:41;91858.38;;;4.64;100.00
9738;BME280;4908;47.446;13.900;2024-03-02T00:36:09;91854.69;;;4.75;100.00
9738;BME280;4908;47.446;13.900;2024-03-02T00:38:44;91845.91;;;4.68;100.00
9738;BME280;4908;47.446;13.900;2024-03-02T00:41:17;91850.72;;;4.55;100.00
9738;BME280;4908;47.446;13.900;2024-03-02T00:43:56;91847.50;;;4.35;100.00
9738;BME280;4908;47.446;13.900;2024-03-02T00:46:23;91847.50;;;4.35;100.00
9738;BME280;4908;47.446;13.900;2024-03-02T00:48:54;91847.22;;;4.47;100.00
9738;BME280;4908;47.446;13.900;2024-03-02T00:51:22;91846.44;;;4.43;100.00
9738;BME280;4908;47.446;13.900;2024-03-02T00:53:51;91850.69;;;4.51;100.00
9738;BME280;4908;47.446;13.900;2024-03-02T00:56:21;91851.47;;;4.55;100.00
9738;BME280;4908;47.446;13.900;2024-03-02T00:58:49;91847.38;;;4.62;100.00
9738;BME280;4908;47.446;13.900;2024-03-02T01:01:16;91853.47;;;4.66;100.00
9738;BME280;4908;47.446;13.900;2024-03-02T01:03:43;91846.91;;;4.52;100.00
9738;BME280;4908;47.446;13.900;2024-03-02T01:06:11;91851.03;;;4.46;100.00
9738;BME280;4908;47.446;13.900;2024-03-02T01:08:38;91848.81;;;4.55;100.00
9738;BME280;4908;47.446;13.900;2024-03-02T01:11:06;91847.41;;;4.69;100.00
9738;BME280;4908;47.446;13.900;2024-03-02T01:13:34;91864.13;;;4.73;100.00
9738;BME280;4908;47.446;13.900;2024-03-02T01:16:01;91848.56;;;4.68;100.00
9738;BME280;4908;47.446;13.900;2024-03-02T01:18:29;91855.38;;;4.69;100.00
9738;BME280;4908;47.446;13.900;2024-03-02T01:20:57;91847.13;;;4.81;100.00
9738;BME280;4908;47.446;13.900;2024-03-02T01:23:24;91848.28;;;4.80;100.00
9738;BME280;4908;47.446;13.900;2024-03-02T01:25:52;91847.47;;;4.76;100.00
9738;BME280;4908;47.446;13.900;2024-03-02T01:28:20;91843.69;;;4.77;100.00
9738;BME280;4908;47.446;13.900;2024-03-02T01:30:48;91848.56;;;4.68;100.00
9738;BME280;4908;47.446;13.900;2024-03-02T01:33:16;91850.78;;;4.62;100.00
9738;BME280;4908;47.446;13.900;2024-03-02T01:35:44;91850.00;;;4.62;100.00
9738;BME280;4908;47.446;13.900;2024-03-02T01:38:11;91845.81;;;4.61;100.00
9738;BME280;4908;47.446;13.900;2024-03-02T01:40:38;91845.38;;;4.51;100.00
9738;BME280;4908;47.446;13.900;2024-03-02T01:43:06;91834.47;;;4.60;100.00
9738;BME280;4908;47.446;13.900;2024-03-02T01:45:35;91841.88;;;4.40;100.00
9738;BME280;4908;47.446;13.900;2024-03-02T01:48:03;91838.97;;;4.52;100.00
9738;BME280;4908;47.446;13.900;2024-03-02T01:50:32;91838.31;;;4.66;100.00
9738;BME280;4908;47.446;13.900;2024-03-02T01:53:00;91834.81;;;4.58;100.00
9738;BME280;4908;47.446;13.900;2024-03-02T01:55:28;91836.72;;;4.54;100.00
9738;BME280;4908;47.446;13.900;2024-03-02T01:57:56;91829.28;;;4.74;100.00
9738;BME280;4908;47.446;13.900;2024-03-02T02:00:23;91832.75;;;4.82;100.00
9738;BME280;4908;47.446;13.900;2024-03-02T02:02:53;91842.84;;;4.66;100.00
9738;BME280;4908;47.446;13.900;2024-03-02T02:05:21;91829.09;;;4.53;100.00
9738;BME280;4908;47.446;13.900;2024-03-02T02:07:48;91833.97;;;4.44;100.00
9738;BME280;4908;47.446;13.900;2024-03-02T02:10:16;91828.56;;;4.33;100.00
9738;BME280;4908;47.446;13.900;2024-03-02T02:12:43;91825.97;;;4.37;100.00
9738;BME280;4908;47.446;13.900;2024-03-02T02:15:26;91823.34;;;4.00;100.00
9738;BME280;4908;47.446;13.900;2024-03-02T02:17:56;91829.75;;;3.99;100.00
9738;BME280;4908;47.446;13.900;2024-03-02T02:20:24;91833.97;;;4.04;100.00
9738;BME280;4908;47.446;13.900;2024-03-02T02:22:59;91834.41;;;4.09;100.00
9738;BME280;4908;47.446;13.900;2024-03-02T02:25:27;91834.41;;;4.09;100.00
9738;BME280;4908;47.446;13.900;2024-03-02T02:27:55;91822.47;;;3.93;100.00
9738;BME280;4908;47.446;13.900;2024-03-02T02:30:23;91826.50;;;4.16;100.00
9738;BME280;4908;47.446;13.900;2024-03-02T02:32:51;91819.03;;;4.25;100.00
9738;BME280;4908;47.446;13.900;2024-03-02T02:35:18;91826.94;;;4.22;100.00
9738;BME280;4908;47.446;13.900;2024-03-02T02:37:46;91827.50;;;4.01;100.00
9738;BME280;4908;47.446;13.900;2024-03-02T02:40:15;91830.13;;;3.98;100.00
9738;BME280;4908;47.446;13.900;2024-03-02T02:42:44;91824.38;;;3.92;100.00
9738;BME280;4908;47.446;13.900;2024-03-02T02:45:11;91828.63;;;4.00;100.00
9738;BME280;4908;47.446;13.900;2024-03-02T02:47:40;91827.13;;;4.03;100.00
9738;BME280;4908;47.446;13.900;2024-03-02T02:50:08;91820.00;;;4.10;100.00
9738;BME280;4908;47.446;13.900;2024-03-02T02:52:36;91832.41;;;3.99;100.00
9738;BME280;4908;47.446;13.900;2024-03-02T02:55:06;91817.94;;;3.93;100.00
9738;BME280;4908;47.446;13.900;2024-03-02T02:57:35;91824.38;;;3.92;100.00
9738;BME280;4908;47.446;13.900;2024-03-02T03:00:06;91818.75;;;3.97;100.00
9738;BME280;4908;47.446;13.900;2024-03-02T03:02:37;91818.88;;;4.08;100.00
9738;BME280;4908;47.446;13.900;2024-03-02T03:05:06;91818.97;;;4.18;100.00
9738;BME280;4908;47.446;13.900;2024-03-02T03:07:34;91825.69;;;4.09;100.00
9738;BME280;4908;47.446;13.900;2024-03-02T03:10:02;91815.06;;;4.05;100.00
9738;BME280;4908;47.446;13.900;2024-03-02T03:12:29;91818.06;;;4.04;100.00
9738;BME280;4908;47.446;13.900;2024-03-02T03:14:58;91816.44;;;3.92;100.00
9738;BME280;4908;47.446;13.900;2024-03-02T03:17:26;91820.94;;;3.88;100.00
9738;BME280;4908;47.446;13.900;2024-03-02T03:19:53;91831.88;;;3.87;100.00
9738;BME280;4908;47.446;13.900;2024-03-02T03:22:20;91829.50;;;3.75;100.00
9738;BME280;4908;47.446;13.900;2024-03-02T03:24:47;91822.94;;;3.65;100.00
9738;BME280;4908;47.446;13.900;2024-03-02T03:27:14;91829.69;;;3.59;100.00
9738;BME280;4908;47.446;13.900;2024-03-02T03:29:41;91831.34;;;3.71;100.00
9738;BME280;4908;47.446;13.900;2024-03-02T03:32:10;91837.44;;;3.75;100.00
9738;BME280;4908;47.446;13.900;2024-03-02T03:34:38;91839.94;;;3.64;100.00
9738;BME280;4908;47.446;13.900;2024-03-02T03:37:05;91832.00;;;3.64;100.00
9738;BME280;4908;47.446;13.900;2024-03-02T03:39:34;91840.41;;;3.73;100.00
9738;BME280;4908;47.446;13.900;2024-03-02T03:42:01;91835.94;;;3.77;100.00
9738;BME280;4908;47.446;13.900;2024-03-02T03:44:29;91839.28;;;3.71;100.00
9738;BME280;4908;47.446;13.900;2024-03-02T03:46:56;91843.41;;;3.68;100.00
9738;BME280;4908;47.446;13.900;2024-03-02T03:49:24;91835.09;;;3.70;100.00
9738;BME280;4908;47.446;13.900;2024-03-02T03:51:52;91846.09;;;3.75;100.00
9738;BME280;4908;47.446;13.900;2024-03-02T03:54:19;91848.97;;;3.93;100.00
9738;BME280;4908;47.446;13.900;2024-03-02T03:56:46;91851.16;;;3.87;100.00
9738;BME280;4908;47.446;13.900;2024-03-02T03:59:13;91843.63;;;3.89;100.00
9738;BME280;4908;47.446;13.900;2024-03-02T04:01:40;91849.41;;;3.98;100.00
9738;BME280;4908;47.446;13.900;2024-03-02T04:04:07;91835.44;;;4.01;100.00
9738;BME280;4908;47.446;13.900;2024-03-02T04:06:36;91840.75;;;4.01;100.00
9738;BME280;4908;47.446;13.900;2024-03-02T04:09:03;91838.09;;;4.01;100.00
9738;BME280;4908;47.446;13.900;2024-03-02T04:11:30;91844.06;;;3.95;100.00
9738;BME280;4908;47.446;13.900;2024-03-02T04:13:57;91845.19;;;3.94;100.00
9738;BME280;4908;47.446;13.900;2024-03-02T04:16:25;91843.78;;;4.03;100.00
9738;BME280;4908;47.446;13.900;2024-03-02T04:18:52;91845.22;;;3.97;100.00
9738;BME280;4908;47.446;13.900;2024-03-02T04:21:20;91842.53;;;3.90;100.00
9738;BME280;4908;47.446;13.900;2024-03-02T04:23:48;91846.72;;;3.95;100.00
9738;BME280;4908;47.446;13.900;2024-03-02T04:26:15;91847.81;;;3.90;100.00
9738;BME280;4908;47.446;13.900;2024-03-02T04:28:47;91849.66;;;3.86;100.00
9738;BME280;4908;47.446;13.900;2024-03-02T04:31:15;91851.16;;;3.87;100.00
9738;BME280;4908;47.446;13.900;2024-03-02T04:33:42;91847.63;;;3.73;100.00
9738;BME280;4908;47.446;13.900;2024-03-02T04:36:09;91844.38;;;3.86;100.00
9738;BME280;4908;47.446;13.900;2024-03-02T04:38:36;91845.09;;;3.87;100.00
9738;BME280;4908;47.446;13.900;2024-03-02T04:41:05;91846.66;;;3.88;100.00
9738;BME280;4908;47.446;13.900;2024-03-02T04:43:32;91844.38;;;3.86;100.00
9738;BME280;4908;47.446;13.900;2024-03-02T04:46:00;91838.84;;;4.02;100.00
9738;BME280;4908;47.446;13.900;2024-03-02T04:48:27;91836.88;;;3.95;100.00
9738;BME280;4908;47.446;13.900;2024-03-02T04:50:54;91854.31;;;3.96;100.00
9738;BME280;4908;47.446;13.900;2024-03-02T04:53:22;91855.34;;;3.88;100.00
9738;BME280;4908;47.446;13.900;2024-03-02T04:55:49;91852.38;;;3.93;100.00
9738;BME280;4908;47.446;13.900;2024-03-02T04:58:47;91856.47;;;3.87;100.00
9738;BME280;4908;47.446;13.900;2024-03-02T05:01:14;91862.50;;;3.84;100.00
9738;BME280;4908;47.446;13.900;2024-03-02T05:03:43;91866.75;;;3.92;100.00
9738;BME280;4908;47.446;13.900;2024-03-02T05:06:10;91864.91;;;3.96;100.00
9738;BME280;4908;47.446;13.900;2024-03-02T05:08:37;91855.06;;;3.97;100.00
9738;BME280;4908;47.446;13.900;2024-03-02T05:11:05;91856.84;;;3.86;100.00
9738;BME280;4908;47.446;13.900;2024-03-02T05:13:47;91857.97;;;3.85;100.00
9738;BME280;4908;47.446;13.900;2024-03-02T05:16:14;91862.81;;;3.79;100.00
9738;BME280;4908;47.446;13.900;2024-03-02T05:18:41;91870.22;;;3.96;100.00
9738;BME280;4908;47.446;13.900;2024-03-02T05:21:08;91871.66;;;3.90;100.00
9738;BME280;4908;47.446;13.900;2024-03-02T05:23:37;91867.88;;;3.91;100.00
9738;BME280;4908;47.446;13.900;2024-03-02T05:26:04;91860.97;;;3.83;100.00
9738;BME280;4908;47.446;13.900;2024-03-02T05:28:31;91859.31;;;3.72;100.00
9738;BME280;4908;47.446;13.900;2024-03-02T05:31:00;91859.72;;;3.74;100.00
9738;BME280;4908;47.446;13.900;2024-03-02T05:33:27;91863.88;;;3.71;100.00
9738;BME280;4908;47.446;13.900;2024-03-02T05:35:56;91867.53;;;3.63;100.00
9738;BME280;4908;47.446;13.900;2024-03-02T05:38:23;91864.16;;;3.66;100.00
9738;BME280;4908;47.446;13.900;2024-03-02T05:40:50;91870.06;;;3.86;100.00
9738;BME280;4908;47.446;13.900;2024-03-02T05:43:17;91867.88;;;3.91;100.00
9738;BME280;4908;47.446;13.900;2024-03-02T05:45:45;91870.09;;;3.89;100.00
9738;BME280;4908;47.446;13.900;2024-03-02T05:48:13;91867.97;;;3.98;100.00
9738;BME280;4908;47.446;13.900;2024-03-02T05:50:41;91874.69;;;3.92;100.00
9738;BME280;4908;47.446;13.900;2024-03-02T05:53:08;91877.00;;;3.97;100.00
9738;BME280;4908;47.446;13.900;2024-03-02T05:55:35;91875.81;;;3.91;100.00
9738;BME280;4908;47.446;13.900;2024-03-02T05:58:02;91868.94;;;3.87;100.00
9738;BME280;4908;47.446;13.900;2024-03-02T06:00:43;91866.75;;;3.92;100.00
9738;BME280;4908;47.446;13.900;2024-03-02T06:03:10;91867.81;;;3.88;100.00
9738;BME280;4908;47.446;13.900;2024-03-02T06:05:38;91872.34;;;3.87;100.00
9738;BME280;4908;47.446;13.900;2024-03-02T06:08:06;91870.09;;;3.89;100.00
9738;BME280;4908;47.446;13.900;2024-03-02T06:10:33;91875.78;;;3.88;100.00
9738;BME280;4908;47.446;13.900;2024-03-02T06:13:00;91869.34;;;3.89;100.00
9738;BME280;4908;47.446;13.900;2024-03-02T06:15:27;91865.44;;;3.79;100.00
9738;BME280;4908;47.446;13.900;2024-03-02T06:17:54;91871.47;;;3.76;100.00
9738;BME280;4908;47.446;13.900;2024-03-02T06:20:21;91873.50;;;3.86;100.00
9738;BME280;4908;47.446;13.900;2024-03-02T06:22:50;91869.63;;;3.80;100.00
9738;BME280;4908;47.446;13.900;2024-03-02T06:25:17;91878.22;;;3.70;100.00
9738;BME280;4908;47.446;13.900;2024-03-02T06:27:44;91891.66;;;3.58;100.00
9738;BME280;4908;47.446;13.900;2024-03-02T06:30:12;91895.41;;;3.53;100.00
9738;BME280;4908;47.446;13.900;2024-03-02T06:32:39;91899.03;;;3.42;100.00
9738;BME280;4908;47.446;13.900;2024-03-02T06:35:06;91907.66;;;3.65;100.00
9738;BME280;4908;47.446;13.900;2024-03-02T06:37:35;91913.56;;;3.55;100.00
9738;BME280;4908;47.446;13.900;2024-03-02T06:40:05;91913.41;;;3.44;100.00
9738;BME280;4908;47.446;13.900;2024-03-02T06:42:33;91919.56;;;3.52;100.00
9738;BME280;4908;47.446;13.900;2024-03-02T06:45:00;91928.06;;;3.64;100.00
9738;BME280;4908;47.446;13.900;2024-03-02T06:47:27;91930.78;;;3.72;100.00
9738;BME280;4908;47.446;13.900;2024-03-02T06:49:54;91923.28;;;3.77;100.00
9738;BME280;4908;47.446;13.900;2024-03-02T06:52:22;91932.03;;;3.81;100.00
9738;BME280;4908;47.446;13.900;2024-03-02T06:54:49;91928.38;;;3.89;100.00
9738;BME280;4908;47.446;13.900;2024-03-02T06:57:18;91935.19;;;3.90;100.00
9738;BME280;4908;47.446;13.900;2024-03-02T06:59:46;91935.59;;;3.92;100.00
9738;BME280;4908;47.446;13.900;2024-03-02T07:02:15;91947.09;;;4.03;100.00
9738;BME280;4908;47.446;13.900;2024-03-02T07:04:42;91952.06;;;4.08;100.00
9738;BME280;4908;47.446;13.900;2024-03-02T07:07:10;91948.28;;;4.09;100.00
9738;BME280;4908;47.446;13.900;2024-03-02T07:09:37;91941.97;;;4.17;100.00
9738;BME280;4908;47.446;13.900;2024-03-02T07:12:04;91943.22;;;4.30;100.00
9738;BME280;4908;47.446;13.900;2024-03-02T07:14:33;91944.88;;;4.42;100.00
9738;BME280;4908;47.446;13.900;2024-03-02T07:17:13;91947.97;;;4.47;100.00
9738;BME280;4908;47.446;13.900;2024-03-02T07:19:40;91952.41;;;4.40;100.00
9738;BME280;4908;47.446;13.900;2024-03-02T07:22:08;91948.69;;;4.44;100.00
9738;BME280;4908;47.446;13.900;2024-03-02T07:24:39;91959.34;;;4.51;100.00
9738;BME280;4908;47.446;13.900;2024-03-02T07:27:07;91955.50;;;4.45;100.00
9738;BME280;4908;47.446;13.900;2024-03-02T07:29:36;91953.84;;;4.30;100.00
9738;BME280;4908;47.446;13.900;2024-03-02T07:32:04;91954.78;;;4.48;100.00
9738;BME280;4908;47.446;13.900;2024-03-02T07:34:31;91959.13;;;4.67;100.00
9738;BME280;4908;47.446;13.900;2024-03-02T07:36:58;91962.19;;;4.69;100.00
9738;BME280;4908;47.446;13.900;2024-03-02T07:39:25;91958.03;;;4.68;100.00
9738;BME280;4908;47.446;13.900;2024-03-02T07:41:52;91961.13;;;4.77;100.00
9738;BME280;4908;47.446;13.900;2024-03-02T07:44:20;91962.72;;;4.82;100.00
9738;BME280;4908;47.446;13.900;2024-03-02T07:46:48;91962.56;;;4.68;100.00
9738;BME280;4908;47.446;13.900;2024-03-02T07:49:16;91960.09;;;4.85;100.00
9738;BME280;4908;47.446;13.900;2024-03-02T07:51:43;91964.28;;;4.90;100.00
9738;BME280;4908;47.446;13.900;2024-03-02T07:54:10;91964.50;;;5.11;100.00
9738;BME280;4908;47.446;13.900;2024-03-02T07:56:38;91967.00;;;4.97;100.00
9738;BME280;4908;47.446;13.900;2024-03-02T07:59:05;91971.97;;;5.02;100.00
9738;BME280;4908;47.446;13.900;2024-03-02T08:01:32;91970.53;;;5.11;100.00
9738;BME280;4908;47.446;13.900;2024-03-02T08:04:02;91974.09;;;5.26;100.00
9738;BME280;4908;47.446;13.900;2024-03-02T08:06:30;91974.19;;;5.40;100.00
9738;BME280;4908;47.446;13.900;2024-03-02T08:08:58;91977.69;;;5.51;100.00
9738;BME280;4908;47.446;13.900;2024-03-02T08:11:25;91982.63;;;5.56;100.00
9738;BME280;4908;47.446;13.900;2024-03-02T08:13:53;91973.66;;;5.71;100.00
9738;BME280;4908;47.446;13.900;2024-03-02T08:16:21;91978.69;;;5.83;100.00
9738;BME280;4908;47.446;13.900;2024-03-02T08:18:49;91976.91;;;6.01;100.00
9738;BME280;4908;47.446;13.900;2024-03-02T08:21:17;91970.13;;;6.18;100.00
9738;BME280;4908;47.446;13.900;2024-03-02T08:23:44;91965.94;;;6.13;100.00
9738;BME280;4908;47.446;13.900;2024-03-02T08:26:12;91968.16;;;6.04;100.00
9738;BME280;4908;47.446;13.900;2024-03-02T08:28:39;91966.56;;;5.89;100.00
9738;BME280;4908;47.446;13.900;2024-03-02T08:31:07;91968.84;;;5.87;100.00
9738;BME280;4908;47.446;13.900;2024-03-02T08:33:33;91971.91;;;5.93;100.00
9738;BME280;4908;47.446;13.900;2024-03-02T08:36:00;91972.25;;;5.84;100.00
9738;BME280;4908;47.446;13.900;2024-03-02T08:38:29;91970.09;;;6.04;100.00
9738;BME280;4908;47.446;13.900;2024-03-02T08:40:56;91968.91;;;5.98;100.00
9738;BME280;4908;47.446;13.900;2024-03-02T08:43:23;91966.44;;;5.75;100.00
9738;BME280;4908;47.446;13.900;2024-03-02T08:45:51;91963.53;;;5.91;100.00
9738;BME280;4908;47.446;13.900;2024-03-02T08:48:18;91961.91;;;5.72;100.00
9738;BME280;4908;47.446;13.900;2024-03-02T08:50:46;91959.25;;;5.72;100.00
9738;BME280;4908;47.446;13.900;2024-03-02T08:53:13;91964.53;;;5.72;100.00
9738;BME280;4908;47.446;13.900;2024-03-02T08:55:45;91962.13;;;6.04;100.00
9738;BME280;4908;47.446;13.900;2024-03-02T08:58:12;91962.09;;;6.00;100.00
9738;BME280;4908;47.446;13.900;2024-03-02T09:00:40;91962.09;;;6.00;100.00
9738;BME280;4908;47.446;13.900;2024-03-02T09:03:07;91955.28;;;6.06;100.00
9738;BME280;4908;47.446;13.900;2024-03-02T09:05:34;91960.25;;;6.15;100.00
9738;BME280;4908;47.446;13.900;2024-03-02T09:08:01;91951.50;;;6.14;100.00
9738;BME280;4908;47.446;13.900;2024-03-02T09:10:29;91952.69;;;6.20;100.00
9738;BME280;4908;47.446;13.900;2024-03-02T09:12:58;91954.59;;;6.23;100.00
9738;BME280;4908;47.446;13.900;2024-03-02T09:15:25;91947.88;;;6.51;100.00
9738;BME280;4908;47.446;13.900;2024-03-02T09:17:52;91945.53;;;6.35;100.00
9738;BME280;4908;47.446;13.900;2024-03-02T09:20:19;91947.09;;;6.47;100.00
9738;BME280;4908;47.446;13.900;2024-03-02T09:22:46;91938.78;;;6.62;100.00
9738;BME280;4908;47.446;13.900;2024-03-02T09:25:14;91943.75;;;6.78;100.00
9738;BME280;4908;47.446;13.900;2024-03-02T09:27:41;91933.53;;;6.97;100.00
9738;BME280;4908;47.446;13.900;2024-03-02T09:30:11;91938.88;;;7.22;100.00
9738;BME280;4908;47.446;13.900;2024-03-02T09:32:39;91940.41;;;7.48;100.00
9738;BME280;4908;47.446;13.900;2024-03-02T09:35:07;91937.69;;;7.72;100.00
9738;BME280;4908;47.446;13.900;2024-03-02T09:37:34;91934.25;;;7.86;100.00
9738;BME280;4908;47.446;13.900;2024-03-02T09:40:01;91932.66;;;8.09;100.00
9738;BME280;4908;47.446;13.900;2024-03-02T09:42:29;91930.31;;;8.33;100.00
9738;BME280;4908;47.446;13.900;2024-03-02T09:44:56;91924.84;;;8.68;100.00
9738;BME280;4908;47.446;13.900;2024-03-02T09:47:25;91926.66;;;8.85;100.00
9738;BME280;4908;47.446;13.900;2024-03-02T09:49:52;91924.66;;;8.99;100.00
9738;BME280;4908;47.446;13.900;2024-03-02T09:52:22;91918.09;;;9.11;100.00
9738;BME280;4908;47.446;13.900;2024-03-02T09:54:49;91914.22;;;9.16;100.00
9738;BME280;4908;47.446;13.900;2024-03-02T09:57:16;91915.72;;;9.20;100.00
9738;BME280;4908;47.446;13.900;2024-03-02T09:59:43;91917.97;;;9.25;100.00
9738;BME280;4908;47.446;13.900;2024-03-02T10:02:11;91920.66;;;9.25;100.00
9738;BME280;4908;47.446;13.900;2024-03-02T10:04:39;91916.09;;;9.22;100.00
9738;BME280;4908;47.446;13.900;2024-03-02T10:07:10;91913.38;;;9.29;100.00
9738;BME280;4908;47.446;13.900;2024-03-02T10:09:38;91905.78;;;9.24;100.00
9738;BME280;4908;47.446;13.900;2024-03-02T10:12:07;91903.38;;;9.37;100.00
9738;BME280;4908;47.446;13.900;2024-03-02T10:14:35;91899.09;;;9.46;100.00
9738;BME280;4908;47.446;13.900;2024-03-02T10:17:03;91893.38;;;9.44;100.00
9738;BME280;4908;47.446;13.900;2024-03-02T10:19:30;91896.84;;;9.45;100.00
9738;BME280;4908;47.446;13.900;2024-03-02T10:22:00;91890.06;;;9.33;100.00
9738;BME280;4908;47.446;13.900;2024-03-02T10:24:35;91896.66;;;9.18;100.00
9738;BME280;4908;47.446;13.900;2024-03-02T10:27:07;91892.69;;;9.37;100.00
9738;BME280;4908;47.446;13.900;2024-03-02T10:29:37;91895.94;;;9.58;100.00
9738;BME280;4908;47.446;13.900;2024-03-02T10:32:05;91891.38;;;9.59;100.00
9738;BME280;4908;47.446;13.900;2024-03-02T10:34:33;91881.81;;;9.61;100.00
9738;BME280;4908;47.446;13.900;2024-03-02T10:37:01;91893.28;;;9.58;100.00
9738;BME280;4908;47.446;13.900;2024-03-02T10:39:28;91879.78;;;9.72;100.00
9738;BME280;4908;47.446;13.900;2024-03-02T10:41:57;91878.94;;;9.82;100.00
9738;BME280;4908;47.446;13.900;2024-03-02T10:44:25;91875.50;;;9.41;100.00
9738;BME280;4908;47.446;13.900;2024-03-02T10:46:53;91866.91;;;9.60;100.00
9738;BME280;4908;47.446;13.900;2024-03-02T10:49:23;91862.06;;;9.85;100.00
9738;BME280;4908;47.446;13.900;2024-03-02T10:51:51;91852.72;;;10.04;100.00
9738;BME280;4908;47.446;13.900;2024-03-02T10:54:20;91851.81;;;10.18;100.00
9738;BME280;4908;47.446;13.900;2024-03-02T10:56:52;91852.97;;;10.17;100.00
9738;BME280;4908;47.446;13.900;2024-03-02T10:59:26;91840.19;;;10.31;100.00
9738;BME280;4908;47.446;13.900;2024-03-02T11:01:55;91838.59;;;10.34;100.00
9738;BME280;4908;47.446;13.900;2024-03-02T11:04:25;91830.94;;;10.36;97.41
9738;BME280;4908;47.446;13.900;2024-03-02T11:06:58;91827.38;;;10.46;100.00
9738;BME280;4908;47.446;13.900;2024-03-02T11:09:28;91829.88;;;10.60;100.00
9738;BME280;4908;47.446;13.900;2024-03-02T11:12:01;91821.28;;;10.72;100.00
9738;BME280;4908;47.446;13.900;2024-03-02T11:14:30;91827.38;;;10.99;100.00
9738;BME280;4908;47.446;13.900;2024-03-02T11:16:58;91816.09;;;11.11;99.00
9738;BME280;4908;47.446;13.900;2024-03-02T11:19:27;91807.72;;;11.09;100.00
9738;BME280;4908;47.446;13.900;2024-03-02T11:21:55;91800.66;;;11.42;91.55
9738;BME280;4908;47.446;13.900;2024-03-02T11:24:31;91800.59;;;11.45;100.00
9738;BME280;4908;47.446;13.900;2024-03-02T11:27:01;91794.88;;;11.66;100.00
9738;BME280;4908;47.446;13.900;2024-03-02T11:29:46;91792.88;;;11.70;90.66
9738;BME280;4908;47.446;13.900;2024-03-02T11:32:17;91783.69;;;11.72;92.94
9738;BME280;4908;47.446;13.900;2024-03-02T11:34:46;91780.72;;;11.86;74.35
9738;BME280;4908;47.446;13.900;2024-03-02T11:37:14;91776.88;;;11.87;75.81
9738;BME280;4908;47.446;13.900;2024-03-02T11:39:44;91770.75;;;12.06;89.49
9738;BME280;4908;47.446;13.900;2024-03-02T11:42:12;91767.34;;;12.21;84.14
9738;BME280;4908;47.446;13.900;2024-03-02T11:44:42;91760.53;;;12.52;90.54
9738;BME280;4908;47.446;13.900;2024-03-02T11:47:11;91763.31;;;12.65;69.44
9738;BME280;4908;47.446;13.900;2024-03-02T11:49:43;91756.63;;;12.57;76.59
9738;BME280;4908;47.446;13.900;2024-03-02T11:52:11;91766.38;;;12.31;78.42
9738;BME280;4908;47.446;13.900;2024-03-02T11:54:40;91753.69;;;12.68;80.63
9738;BME280;4908;47.446;13.900;2024-03-02T11:57:16;91757.56;;;12.99;72.08
9738;BME280;4908;47.446;13.900;2024-03-02T11:59:43;91744.88;;;13.31;66.73
9738;BME280;4908;47.446;13.900;2024-03-02T12:02:18;91740.28;;;13.61;70.78
9738;BME280;4908;47.446;13.900;2024-03-02T12:04:46;91739.69;;;13.82;72.31
9738;BME280;4908;47.446;13.900;2024-03-02T12:07:18;91740.22;;;14.05;60.39
9738;BME280;4908;47.446;13.900;2024-03-02T12:09:46;91739.84;;;14.32;61.57
9738;BME280;4908;47.446;13.900;2024-03-02T12:12:14;91735.91;;;14.74;61.33
9738;BME280;4908;47.446;13.900;2024-03-02T12:14:50;91739.13;;;14.44;53.11
9738;BME280;4908;47.446;13.900;2024-03-02T12:17:17;91728.16;;;14.51;57.98
9738;BME280;4908;47.446;13.900;2024-03-02T12:19:44;91725.25;;;14.04;52.02
9738;BME280;4908;47.446;13.900;2024-03-02T12:22:12;91724.47;;;13.63;53.37
9738;BME280;4908;47.446;13.900;2024-03-02T12:24:38;91726.69;;;13.52;50.54
9738;BME280;4908;47.446;13.900;2024-03-02T12:27:06;91720.84;;;13.40;50.88
9738;BME280;4908;47.446;13.900;2024-03-02T12:29:34;91720.13;;;12.92;52.43
9738;BME280;4908;47.446;13.900;2024-03-02T12:32:01;91722.59;;;13.31;54.57
9738;BME280;4908;47.446;13.900;2024-03-02T12:34:29;91711.16;;;14.13;55.99
9738;BME280;4908;47.446;13.900;2024-03-02T12:36:56;91714.03;;;15.32;49.10
9738;BME280;4908;47.446;13.900;2024-03-02T12:39:23;91710.75;;;15.02;48.43
9738;BME280;4908;47.446;13.900;2024-03-02T12:41:50;91707.22;;;16.48;46.86
9738;BME280;4908;47.446;13.900;2024-03-02T12:44:19;91704.00;;;17.77;42.98
9738;BME280;4908;47.446;13.900;2024-03-02T12:46:48;91703.41;;;18.69;36.84
9738;BME280;4908;47.446;13.900;2024-03-02T12:49:15;91698.38;;;19.19;37.29
9738;BME280;4908;47.446;13.900;2024-03-02T12:51:42;91699.59;;;20.56;32.35
9738;BME280;4908;47.446;13.900;2024-03-02T12:54:12;91696.53;;;23.83;31.67
9738;BME280;4908;47.446;13.900;2024-03-02T12:56:40;91680.84;;;25.75;25.91
9738;BME280;4908;47.446;13.900;2024-03-02T12:59:18;91697.53;;;28.48;24.59
9738;BME280;4908;47.446;13.900;2024-03-02T13:01:51;91691.50;;;29.69;20.98
9738;BME280;4908;47.446;13.900;2024-03-02T13:04:22;91684.72;;;31.08;20.18
9738;BME280;4908;47.446;13.900;2024-03-02T13:06:49;91686.00;;;30.47;19.99
9738;BME280;4908;47.446;13.900;2024-03-02T13:09:17;91684.78;;;31.49;18.57
9738;BME280;4908;47.446;13.900;2024-03-02T13:11:44;91675.41;;;32.01;17.91
9738;BME280;4908;47.446;13.900;2024-03-02T13:14:12;91670.53;;;32.50;17.85
9738;BME280;4908;47.446;13.900;2024-03-02T13:16:39;91683.72;;;33.08;17.52